sensor_id;sensor_type;location;lat;lon;timestamp;P1;durP1;ratioP1;P2;durP2;ratioP2
19776;SDS011;10047;42.490;26.012;2022-10-31T00:02:19;17.33;;;11.13;;
19776;SDS011;10047;42.490;26.012;2022-10-31T00:04:44;16.17;;;11.20;;
19776;SDS011;10047;42.490;26.012;2022-10-31T00:07:10;15.32;;;10.55;;
19776;SDS011;10047;42.490;26.012;2022-10-31T00:09:35;17.08;;;10.52;;
19776;SDS011;10047;42.490;26.012;2022-10-31T00:12:00;15.20;;;10.35;;
19776;SDS011;10047;42.490;26.012;2022-10-31T00:14:26;18.23;;;10.70;;
19776;SDS011;10047;42.490;26.012;2022-10-31T00:16:51;34.22;;;11.80;;
19776;SDS011;10047;42.490;26.012;2022-10-31T00:19:17;150.63;;;20.15;;
19776;SDS011;10047;42.490;26.012;2022-10-31T00:21:42;17.38;;;10.65;;
19776;SDS011;10047;42.490;26.012;2022-10-31T00:24:07;15.18;;;10.77;;
19776;SDS011;10047;42.490;26.012;2022-10-31T00:26:33;19.23;;;10.82;;
19776;SDS011;10047;42.490;26.012;2022-10-31T00:28:59;17.05;;;11.13;;
19776;SDS011;10047;42.490;26.012;2022-10-31T00:31:24;23.92;;;11.18;;
19776;SDS011;10047;42.490;26.012;2022-10-31T00:33:49;15.07;;;11.15;;
19776;SDS011;10047;42.490;26.012;2022-10-31T00:36:16;17.33;;;10.75;;
19776;SDS011;10047;42.490;26.012;2022-10-31T00:38:43;19.70;;;11.88;;
19776;SDS011;10047;42.490;26.012;2022-10-31T00:41:10;18.58;;;11.63;;
19776;SDS011;10047;42.490;26.012;2022-10-31T00:43:36;15.95;;;11.82;;
19776;SDS011;10047;42.490;26.012;2022-10-31T00:46:01;18.02;;;11.85;;
19776;SDS011;10047;42.490;26.012;2022-10-31T00:48:27;17.73;;;11.73;;
19776;SDS011;10047;42.490;26.012;2022-10-31T00:50:53;16.17;;;12.45;;
19776;SDS011;10047;42.490;26.012;2022-10-31T00:53:19;21.88;;;12.55;;
19776;SDS011;10047;42.490;26.012;2022-10-31T00:55:44;15.88;;;12.30;;
19776;SDS011;10047;42.490;26.012;2022-10-31T00:58:10;17.88;;;12.07;;
19776;SDS011;10047;42.490;26.012;2022-10-31T01:00:35;17.08;;;12.55;;
19776;SDS011;10047;42.490;26.012;2022-10-31T01:03:00;18.05;;;12.65;;
19776;SDS011;10047;42.490;26.012;2022-10-31T01:05:26;20.83;;;12.90;;
19776;SDS011;10047;42.490;26.012;2022-10-31T01:07:51;21.65;;;12.93;;
19776;SDS011;10047;42.490;26.012;2022-10-31T01:10:17;19.45;;;12.88;;
19776;SDS011;10047;42.490;26.012;2022-10-31T01:12:47;17.73;;;13.00;;
19776;SDS011;10047;42.490;26.012;2022-10-31T01:15:14;16.67;;;12.52;;
19776;SDS011;10047;42.490;26.012;2022-10-31T01:17:42;20.52;;;13.05;;
19776;SDS011;10047;42.490;26.012;2022-10-31T01:20:08;19.17;;;12.25;;
19776;SDS011;10047;42.490;26.012;2022-10-31T01:22:34;20.92;;;12.40;;
19776;SDS011;10047;42.490;26.012;2022-10-31T01:25:00;20.35;;;12.40;;
19776;SDS011;10047;42.490;26.012;2022-10-31T01:27:25;19.15;;;11.15;;
19776;SDS011;10047;42.490;26.012;2022-10-31T01:29:51;16.88;;;11.60;;
19776;SDS011;10047;42.490;26.012;2022-10-31T01:32:16;18.48;;;11.85;;
19776;SDS011;10047;42.490;26.012;2022-10-31T01:34:41;16.85;;;11.25;;
19776;SDS011;10047;42.490;26.012;2022-10-31T01:37:07;19.98;;;12.23;;
19776;SDS011;10047;42.490;26.012;2022-10-31T01:39:32;20.70;;;12.40;;
19776;SDS011;10047;42.490;26.012;2022-10-31T01:41:58;17.48;;;11.82;;
19776;SDS011;10047;42.490;26.012;2022-10-31T01:49:18;16.85;;;11.10;;
19776;SDS011;10047;42.490;26.012;2022-10-31T01:51:51;16.05;;;11.52;;
19776;SDS011;10047;42.490;26.012;2022-10-31T01:54:20;19.70;;;11.95;;
19776;SDS011;10047;42.490;26.012;2022-10-31T01:56:49;19.00;;;11.40;;
19776;SDS011;10047;42.490;26.012;2022-10-31T01:59:18;16.90;;;11.13;;
19776;SDS011;10047;42.490;26.012;2022-10-31T02:01:46;17.15;;;11.07;;
19776;SDS011;10047;42.490;26.012;2022-10-31T02:04:15;17.67;;;11.38;;
19776;SDS011;10047;42.490;26.012;2022-10-31T02:06:46;25.45;;;11.80;;
19776;SDS011;10047;42.490;26.012;2022-10-31T02:09:14;18.73;;;11.40;;
19776;SDS011;10047;42.490;26.012;2022-10-31T02:11:40;19.85;;;11.65;;
19776;SDS011;10047;42.490;26.012;2022-10-31T02:14:06;18.05;;;11.50;;
19776;SDS011;10047;42.490;26.012;2022-10-31T02:16:31;18.23;;;11.32;;
19776;SDS011;10047;42.490;26.012;2022-10-31T02:18:57;19.23;;;11.23;;
19776;SDS011;10047;42.490;26.012;2022-10-31T02:21:24;17.45;;;11.90;;
19776;SDS011;10047;42.490;26.012;2022-10-31T02:26:52;18.63;;;11.75;;
19776;SDS011;10047;42.490;26.012;2022-10-31T02:35:06;19.20;;;11.30;;
19776;SDS011;10047;42.490;26.012;2022-10-31T02:37:57;15.80;;;11.23;;
19776;SDS011;10047;42.490;26.012;2022-10-31T02:40:33;18.67;;;11.65;;
19776;SDS011;10047;42.490;26.012;2022-10-31T02:43:12;17.95;;;11.40;;
19776;SDS011;10047;42.490;26.012;2022-10-31T02:48:27;15.90;;;10.75;;
19776;SDS011;10047;42.490;26.012;2022-10-31T02:51:01;16.77;;;10.82;;
19776;SDS011;10047;42.490;26.012;2022-10-31T02:53:32;16.58;;;10.85;;
19776;SDS011;10047;42.490;26.012;2022-10-31T02:56:02;16.00;;;10.85;;
19776;SDS011;10047;42.490;26.012;2022-10-31T02:58:32;16.98;;;10.38;;
19776;SDS011;10047;42.490;26.012;2022-10-31T03:06:35;19.77;;;10.30;;
19776;SDS011;10047;42.490;26.012;2022-10-31T03:09:17;16.42;;;10.02;;
19776;SDS011;10047;42.490;26.012;2022-10-31T03:14:42;16.85;;;10.43;;
19776;SDS011;10047;42.490;26.012;2022-10-31T03:17:30;18.33;;;11.40;;
19776;SDS011;10047;42.490;26.012;2022-10-31T03:20:02;18.40;;;11.38;;
19776;SDS011;10047;42.490;26.012;2022-10-31T03:22:31;23.35;;;11.93;;
19776;SDS011;10047;42.490;26.012;2022-10-31T03:24:59;21.70;;;11.77;;
19776;SDS011;10047;42.490;26.012;2022-10-31T03:27:28;20.08;;;11.35;;
19776;SDS011;10047;42.490;26.012;2022-10-31T03:29:58;16.58;;;11.40;;
19776;SDS011;10047;42.490;26.012;2022-10-31T03:32:31;18.55;;;11.18;;
19776;SDS011;10047;42.490;26.012;2022-10-31T03:35:02;18.98;;;10.88;;
19776;SDS011;10047;42.490;26.012;2022-10-31T03:37:30;18.33;;;11.05;;
19776;SDS011;10047;42.490;26.012;2022-10-31T03:39:58;18.65;;;10.27;;
19776;SDS011;10047;42.490;26.012;2022-10-31T03:42:27;16.45;;;11.05;;
19776;SDS011;10047;42.490;26.012;2022-10-31T03:44:56;20.23;;;11.27;;
19776;SDS011;10047;42.490;26.012;2022-10-31T03:47:26;18.40;;;11.25;;
19776;SDS011;10047;42.490;26.012;2022-10-31T03:49:52;19.00;;;11.48;;
19776;SDS011;10047;42.490;26.012;2022-10-31T04:00:13;24.90;;;13.85;;
19776;SDS011;10047;42.490;26.012;2022-10-31T04:02:44;20.98;;;12.55;;
19776;SDS011;10047;42.490;26.012;2022-10-31T04:05:23;18.23;;;11.80;;
19776;SDS011;10047;42.490;26.012;2022-10-31T04:07:50;22.23;;;11.90;;
19776;SDS011;10047;42.490;26.012;2022-10-31T04:10:18;15.55;;;10.93;;
19776;SDS011;10047;42.490;26.012;2022-10-31T04:12:48;19.95;;;11.30;;
19776;SDS011;10047;42.490;26.012;2022-10-31T04:15:18;17.50;;;11.38;;
19776;SDS011;10047;42.490;26.012;2022-10-31T04:17:44;16.85;;;10.35;;
19776;SDS011;10047;42.490;26.012;2022-10-31T04:20:15;24.17;;;11.50;;
19776;SDS011;10047;42.490;26.012;2022-10-31T04:22:41;21.88;;;10.88;;
19776;SDS011;10047;42.490;26.012;2022-10-31T04:25:07;19.05;;;11.68;;
19776;SDS011;10047;42.490;26.012;2022-10-31T04:27:33;18.70;;;10.98;;
19776;SDS011;10047;42.490;26.012;2022-10-31T04:29:58;24.88;;;12.48;;
19776;SDS011;10047;42.490;26.012;2022-10-31T04:32:24;19.38;;;12.35;;
19776;SDS011;10047;42.490;26.012;2022-10-31T04:34:50;21.85;;;10.35;;
19776;SDS011;10047;42.490;26.012;2022-10-31T04:37:16;31.38;;;12.50;;
19776;SDS011;10047;42.490;26.012;2022-10-31T04:39:41;23.20;;;11.63;;
19776;SDS011;10047;42.490;26.012;2022-10-31T04:42:06;24.80;;;12.20;;
19776;SDS011;10047;42.490;26.012;2022-10-31T04:44:32;23.33;;;12.40;;
19776;SDS011;10047;42.490;26.012;2022-10-31T04:46:57;25.80;;;13.45;;
19776;SDS011;10047;42.490;26.012;2022-10-31T04:49:22;20.98;;;13.00;;
19776;SDS011;10047;42.490;26.012;2022-10-31T04:51:48;26.42;;;12.45;;
19776;SDS011;10047;42.490;26.012;2022-10-31T04:54:13;23.45;;;12.38;;
19776;SDS011;10047;42.490;26.012;2022-10-31T04:56:40;25.98;;;12.43;;
19776;SDS011;10047;42.490;26.012;2022-10-31T04:59:05;23.63;;;12.07;;
19776;SDS011;10047;42.490;26.012;2022-10-31T05:01:31;27.10;;;13.57;;
19776;SDS011;10047;42.490;26.012;2022-10-31T05:03:56;26.77;;;13.15;;
19776;SDS011;10047;42.490;26.012;2022-10-31T05:06:23;33.10;;;14.52;;
19776;SDS011;10047;42.490;26.012;2022-10-31T05:08:49;28.60;;;14.05;;
19776;SDS011;10047;42.490;26.012;2022-10-31T05:11:14;25.38;;;13.15;;
19776;SDS011;10047;42.490;26.012;2022-10-31T05:13:40;30.85;;;13.27;;
19776;SDS011;10047;42.490;26.012;2022-10-31T05:16:06;28.15;;;13.57;;
19776;SDS011;10047;42.490;26.012;2022-10-31T05:18:31;27.17;;;13.77;;
19776;SDS011;10047;42.490;26.012;2022-10-31T05:20:57;28.80;;;14.55;;
19776;SDS011;10047;42.490;26.012;2022-10-31T05:23:22;30.98;;;15.82;;
19776;SDS011;10047;42.490;26.012;2022-10-31T05:25:47;29.90;;;14.65;;
19776;SDS011;10047;42.490;26.012;2022-10-31T05:28:13;31.35;;;16.05;;
19776;SDS011;10047;42.490;26.012;2022-10-31T05:30:38;41.08;;;19.60;;
19776;SDS011;10047;42.490;26.012;2022-10-31T05:33:04;36.90;;;18.73;;
19776;SDS011;10047;42.490;26.012;2022-10-31T05:35:30;40.90;;;19.63;;
19776;SDS011;10047;42.490;26.012;2022-10-31T05:37:57;36.83;;;18.30;;
19776;SDS011;10047;42.490;26.012;2022-10-31T05:40:23;44.58;;;14.80;;
19776;SDS011;10047;42.490;26.012;2022-10-31T05:42:51;31.70;;;18.02;;
19776;SDS011;10047;42.490;26.012;2022-10-31T05:45:18;34.20;;;17.25;;
19776;SDS011;10047;42.490;26.012;2022-10-31T05:47:54;39.03;;;16.58;;
19776;SDS011;10047;42.490;26.012;2022-10-31T05:50:23;35.42;;;15.75;;
19776;SDS011;10047;42.490;26.012;2022-10-31T05:52:54;28.63;;;15.32;;
19776;SDS011;10047;42.490;26.012;2022-10-31T05:55:26;29.58;;;14.80;;
19776;SDS011;10047;42.490;26.012;2022-10-31T05:57:53;34.75;;;17.48;;
19776;SDS011;10047;42.490;26.012;2022-10-31T06:00:19;31.58;;;17.65;;
19776;SDS011;10047;42.490;26.012;2022-10-31T06:02:45;37.17;;;18.00;;
19776;SDS011;10047;42.490;26.012;2022-10-31T06:05:10;41.80;;;18.83;;
19776;SDS011;10047;42.490;26.012;2022-10-31T06:07:37;39.08;;;18.67;;
19776;SDS011;10047;42.490;26.012;2022-10-31T06:10:03;41.85;;;19.35;;
19776;SDS011;10047;42.490;26.012;2022-10-31T06:12:31;40.08;;;19.42;;
19776;SDS011;10047;42.490;26.012;2022-10-31T06:14:56;32.40;;;17.20;;
19776;SDS011;10047;42.490;26.012;2022-10-31T06:17:22;30.27;;;16.27;;
19776;SDS011;10047;42.490;26.012;2022-10-31T06:19:47;32.97;;;16.85;;
19776;SDS011;10047;42.490;26.012;2022-10-31T06:22:13;32.08;;;16.48;;
19776;SDS011;10047;42.490;26.012;2022-10-31T06:24:39;31.45;;;18.63;;
19776;SDS011;10047;42.490;26.012;2022-10-31T06:27:04;33.55;;;16.83;;
19776;SDS011;10047;42.490;26.012;2022-10-31T06:29:30;36.47;;;18.27;;
19776;SDS011;10047;42.490;26.012;2022-10-31T06:31:56;28.85;;;14.18;;
19776;SDS011;10047;42.490;26.012;2022-10-31T06:34:21;21.08;;;13.38;;
19776;SDS011;10047;42.490;26.012;2022-10-31T06:36:47;23.02;;;12.32;;
19776;SDS011;10047;42.490;26.012;2022-10-31T06:39:13;20.67;;;11.65;;
19776;SDS011;10047;42.490;26.012;2022-10-31T06:41:39;22.90;;;11.77;;
19776;SDS011;10047;42.490;26.012;2022-10-31T06:44:05;29.05;;;12.60;;
19776;SDS011;10047;42.490;26.012;2022-10-31T06:46:31;22.75;;;12.52;;
19776;SDS011;10047;42.490;26.012;2022-10-31T06:48:56;21.67;;;13.13;;
19776;SDS011;10047;42.490;26.012;2022-10-31T06:51:22;23.80;;;13.10;;
19776;SDS011;10047;42.490;26.012;2022-10-31T06:53:47;24.73;;;12.68;;
19776;SDS011;10047;42.490;26.012;2022-10-31T06:56:13;26.05;;;11.50;;
19776;SDS011;10047;42.490;26.012;2022-10-31T06:58:38;25.27;;;12.38;;
19776;SDS011;10047;42.490;26.012;2022-10-31T07:01:04;31.85;;;13.23;;
19776;SDS011;10047;42.490;26.012;2022-10-31T07:03:29;26.70;;;13.20;;
19776;SDS011;10047;42.490;26.012;2022-10-31T07:05:55;31.98;;;12.82;;
19776;SDS011;10047;42.490;26.012;2022-10-31T07:08:21;26.73;;;10.07;;
19776;SDS011;10047;42.490;26.012;2022-10-31T07:10:52;28.52;;;11.40;;
19776;SDS011;10047;42.490;26.012;2022-10-31T07:13:18;31.92;;;12.50;;
19776;SDS011;10047;42.490;26.012;2022-10-31T07:15:49;32.30;;;11.77;;
19776;SDS011;10047;42.490;26.012;2022-10-31T07:18:15;27.10;;;11.25;;
19776;SDS011;10047;42.490;26.012;2022-10-31T07:20:40;31.50;;;11.90;;
19776;SDS011;10047;42.490;26.012;2022-10-31T07:23:06;25.58;;;11.98;;
19776;SDS011;10047;42.490;26.012;2022-10-31T07:25:32;20.23;;;11.48;;
19776;SDS011;10047;42.490;26.012;2022-10-31T07:27:58;22.92;;;11.13;;
19776;SDS011;10047;42.490;26.012;2022-10-31T07:30:23;22.52;;;10.25;;
19776;SDS011;10047;42.490;26.012;2022-10-31T07:32:49;20.27;;;10.18;;
19776;SDS011;10047;42.490;26.012;2022-10-31T07:35:17;21.45;;;9.90;;
19776;SDS011;10047;42.490;26.012;2022-10-31T07:37:44;27.63;;;10.75;;
19776;SDS011;10047;42.490;26.012;2022-10-31T07:40:10;31.83;;;10.75;;
19776;SDS011;10047;42.490;26.012;2022-10-31T07:42:37;26.90;;;10.95;;
19776;SDS011;10047;42.490;26.012;2022-10-31T07:45:04;25.75;;;9.50;;
19776;SDS011;10047;42.490;26.012;2022-10-31T07:47:37;16.52;;;6.57;;
19776;SDS011;10047;42.490;26.012;2022-10-31T07:50:03;14.95;;;6.25;;
19776;SDS011;10047;42.490;26.012;2022-10-31T07:52:29;13.43;;;6.00;;
19776;SDS011;10047;42.490;26.012;2022-10-31T07:54:54;15.63;;;5.80;;
19776;SDS011;10047;42.490;26.012;2022-10-31T07:57:20;9.63;;;5.65;;
19776;SDS011;10047;42.490;26.012;2022-10-31T07:59:45;8.57;;;5.80;;
19776;SDS011;10047;42.490;26.012;2022-10-31T08:02:11;10.45;;;5.25;;
19776;SDS011;10047;42.490;26.012;2022-10-31T08:04:36;10.73;;;5.50;;
19776;SDS011;10047;42.490;26.012;2022-10-31T08:07:01;8.48;;;5.70;;
19776;SDS011;10047;42.490;26.012;2022-10-31T08:09:27;8.10;;;5.35;;
19776;SDS011;10047;42.490;26.012;2022-10-31T08:11:52;12.02;;;5.20;;
19776;SDS011;10047;42.490;26.012;2022-10-31T08:14:18;8.75;;;5.15;;
19776;SDS011;10047;42.490;26.012;2022-10-31T08:16:43;10.80;;;5.60;;
19776;SDS011;10047;42.490;26.012;2022-10-31T08:19:09;10.35;;;6.20;;
19776;SDS011;10047;42.490;26.012;2022-10-31T08:21:34;12.57;;;6.07;;
19776;SDS011;10047;42.490;26.012;2022-10-31T08:24:00;13.73;;;5.93;;
19776;SDS011;10047;42.490;26.012;2022-10-31T08:26:25;9.40;;;4.90;;
19776;SDS011;10047;42.490;26.012;2022-10-31T08:28:50;13.00;;;4.90;;
19776;SDS011;10047;42.490;26.012;2022-10-31T08:31:16;11.60;;;4.60;;
19776;SDS011;10047;42.490;26.012;2022-10-31T08:33:41;11.73;;;4.90;;
19776;SDS011;10047;42.490;26.012;2022-10-31T08:36:07;9.07;;;4.75;;
19776;SDS011;10047;42.490;26.012;2022-10-31T08:38:32;11.38;;;5.45;;
19776;SDS011;10047;42.490;26.012;2022-10-31T08:40:58;10.80;;;4.85;;
19776;SDS011;10047;42.490;26.012;2022-10-31T08:43:23;10.65;;;5.13;;
19776;SDS011;10047;42.490;26.012;2022-10-31T08:45:49;10.55;;;4.50;;
19776;SDS011;10047;42.490;26.012;2022-10-31T08:48:15;9.57;;;4.55;;
19776;SDS011;10047;42.490;26.012;2022-10-31T08:50:41;6.72;;;4.10;;
19776;SDS011;10047;42.490;26.012;2022-10-31T08:53:12;11.35;;;4.50;;
19776;SDS011;10047;42.490;26.012;2022-10-31T08:55:42;7.13;;;4.43;;
19776;SDS011;10047;42.490;26.012;2022-10-31T08:58:11;11.95;;;4.63;;
19776;SDS011;10047;42.490;26.012;2022-10-31T09:00:41;9.52;;;4.65;;
19776;SDS011;10047;42.490;26.012;2022-10-31T09:06:00;8.45;;;4.80;;
19776;SDS011;10047;42.490;26.012;2022-10-31T09:08:28;7.22;;;4.60;;
19776;SDS011;10047;42.490;26.012;2022-10-31T09:10:55;12.35;;;5.28;;
19776;SDS011;10047;42.490;26.012;2022-10-31T09:13:22;8.75;;;4.30;;
19776;SDS011;10047;42.490;26.012;2022-10-31T09:15:48;9.75;;;5.03;;
19776;SDS011;10047;42.490;26.012;2022-10-31T09:18:15;7.15;;;4.20;;
19776;SDS011;10047;42.490;26.012;2022-10-31T09:20:42;9.98;;;4.32;;
19776;SDS011;10047;42.490;26.012;2022-10-31T09:23:16;8.65;;;4.50;;
19776;SDS011;10047;42.490;26.012;2022-10-31T09:25:43;6.38;;;4.00;;
19776;SDS011;10047;42.490;26.012;2022-10-31T09:28:10;9.63;;;4.35;;
19776;SDS011;10047;42.490;26.012;2022-10-31T09:30:39;13.07;;;4.43;;
19776;SDS011;10047;42.490;26.012;2022-10-31T09:33:11;9.60;;;4.30;;
19776;SDS011;10047;42.490;26.012;2022-10-31T09:35:38;8.18;;;4.13;;
19776;SDS011;10047;42.490;26.012;2022-10-31T09:38:08;8.63;;;4.38;;
19776;SDS011;10047;42.490;26.012;2022-10-31T09:40:37;9.27;;;4.45;;
19776;SDS011;10047;42.490;26.012;2022-10-31T09:45:53;7.30;;;4.15;;
19776;SDS011;10047;42.490;26.012;2022-10-31T09:48:52;11.85;;;4.28;;
19776;SDS011;10047;42.490;26.012;2022-10-31T09:51:37;7.88;;;3.80;;
19776;SDS011;10047;42.490;26.012;2022-10-31T09:54:19;6.30;;;4.15;;
19776;SDS011;10047;42.490;26.012;2022-10-31T09:56:50;8.50;;;4.32;;
19776;SDS011;10047;42.490;26.012;2022-10-31T09:59:27;7.28;;;3.95;;
19776;SDS011;10047;42.490;26.012;2022-10-31T10:01:58;11.48;;;4.70;;
19776;SDS011;10047;42.490;26.012;2022-10-31T10:04:32;11.05;;;4.00;;
19776;SDS011;10047;42.490;26.012;2022-10-31T10:07:17;8.15;;;4.18;;
19776;SDS011;10047;42.490;26.012;2022-10-31T10:09:49;11.30;;;4.80;;
19776;SDS011;10047;42.490;26.012;2022-10-31T10:17:49;10.90;;;3.90;;
19776;SDS011;10047;42.490;26.012;2022-10-31T10:20:29;7.65;;;4.00;;
19776;SDS011;10047;42.490;26.012;2022-10-31T10:26:40;9.07;;;4.00;;
19776;SDS011;10047;42.490;26.012;2022-10-31T10:28:51;6.38;;;3.78;;
19776;SDS011;10047;42.490;26.012;2022-10-31T10:31:41;8.45;;;4.03;;
19776;SDS011;10047;42.490;26.012;2022-10-31T10:39:33;10.80;;;3.55;;
19776;SDS011;10047;42.490;26.012;2022-10-31T10:42:07;7.55;;;3.47;;
19776;SDS011;10047;42.490;26.012;2022-10-31T10:44:57;6.60;;;3.10;;
19776;SDS011;10047;42.490;26.012;2022-10-31T10:47:43;11.93;;;3.40;;
19776;SDS011;10047;42.490;26.012;2022-10-31T10:50:16;6.47;;;3.67;;
19776;SDS011;10047;42.490;26.012;2022-10-31T10:55:21;6.05;;;3.20;;
19776;SDS011;10047;42.490;26.012;2022-10-31T10:57:56;7.65;;;3.20;;
19776;SDS011;10047;42.490;26.012;2022-10-31T11:00:26;7.28;;;3.30;;
19776;SDS011;10047;42.490;26.012;2022-10-31T11:02:55;4.28;;;3.25;;
19776;SDS011;10047;42.490;26.012;2022-10-31T11:05:26;5.70;;;2.92;;
19776;SDS011;10047;42.490;26.012;2022-10-31T11:07:58;7.63;;;3.00;;
19776;SDS011;10047;42.490;26.012;2022-10-31T11:10:23;7.50;;;2.67;;
19776;SDS011;10047;42.490;26.012;2022-10-31T11:13:50;4.20;;;2.70;;
19776;SDS011;10047;42.490;26.012;2022-10-31T11:16:10;5.13;;;2.58;;
19776;SDS011;10047;42.490;26.012;2022-10-31T11:18:43;5.03;;;2.92;;
19776;SDS011;10047;42.490;26.012;2022-10-31T11:21:21;7.78;;;2.88;;
19776;SDS011;10047;42.490;26.012;2022-10-31T11:26:37;4.75;;;2.83;;
19776;SDS011;10047;42.490;26.012;2022-10-31T11:29:04;4.80;;;2.60;;
19776;SDS011;10047;42.490;26.012;2022-10-31T11:31:35;9.80;;;2.80;;
19776;SDS011;10047;42.490;26.012;2022-10-31T11:34:01;3.45;;;2.20;;
19776;SDS011;10047;42.490;26.012;2022-10-31T11:36:29;3.65;;;2.20;;
19776;SDS011;10047;42.490;26.012;2022-10-31T11:39:13;9.07;;;2.20;;
19776;SDS011;10047;42.490;26.012;2022-10-31T11:41:42;5.97;;;2.20;;
19776;SDS011;10047;42.490;26.012;2022-10-31T11:44:18;5.45;;;2.20;;
19776;SDS011;10047;42.490;26.012;2022-10-31T11:46:47;4.88;;;2.40;;
19776;SDS011;10047;42.490;26.012;2022-10-31T11:49:29;5.82;;;2.13;;
19776;SDS011;10047;42.490;26.012;2022-10-31T11:51:56;6.13;;;2.40;;
19776;SDS011;10047;42.490;26.012;2022-10-31T11:54:27;5.35;;;2.70;;
19776;SDS011;10047;42.490;26.012;2022-10-31T12:00:19;9.65;;;3.58;;
19776;SDS011;10047;42.490;26.012;2022-10-31T12:03:10;5.35;;;2.50;;
19776;SDS011;10047;42.490;26.012;2022-10-31T12:05:46;5.10;;;2.78;;
19776;SDS011;10047;42.490;26.012;2022-10-31T12:08:14;7.75;;;3.38;;
19776;SDS011;10047;42.490;26.012;2022-10-31T12:10:58;8.05;;;3.00;;
19776;SDS011;10047;42.490;26.012;2022-10-31T12:16:15;7.68;;;3.00;;
19776;SDS011;10047;42.490;26.012;2022-10-31T12:18:56;4.70;;;2.58;;
19776;SDS011;10047;42.490;26.012;2022-10-31T12:21:34;5.10;;;3.22;;
19776;SDS011;10047;42.490;26.012;2022-10-31T12:27:34;6.32;;;3.15;;
19776;SDS011;10047;42.490;26.012;2022-10-31T12:30:19;6.13;;;3.78;;
19776;SDS011;10047;42.490;26.012;2022-10-31T12:33:02;9.70;;;4.65;;
19776;SDS011;10047;42.490;26.012;2022-10-31T12:35:40;7.32;;;2.70;;
19776;SDS011;10047;42.490;26.012;2022-10-31T12:41:15;6.28;;;2.63;;
19776;SDS011;10047;42.490;26.012;2022-10-31T12:52:06;8.10;;;3.55;;
19776;SDS011;10047;42.490;26.012;2022-10-31T13:00:19;9.35;;;4.32;;
19776;SDS011;10047;42.490;26.012;2022-10-31T13:10:39;5.40;;;2.83;;
19776;SDS011;10047;42.490;26.012;2022-10-31T13:13:11;7.03;;;2.50;;
19776;SDS011;10047;42.490;26.012;2022-10-31T13:15:48;5.30;;;2.75;;
19776;SDS011;10047;42.490;26.012;2022-10-31T13:18:31;6.10;;;2.78;;
19776;SDS011;10047;42.490;26.012;2022-10-31T13:21:03;4.50;;;2.10;;
19776;SDS011;10047;42.490;26.012;2022-10-31T13:23:37;3.58;;;2.10;;
19776;SDS011;10047;42.490;26.012;2022-10-31T13:26:12;4.32;;;2.40;;
19776;SDS011;10047;42.490;26.012;2022-10-31T13:28:53;5.13;;;2.35;;
19776;SDS011;10047;42.490;26.012;2022-10-31T13:31:26;5.72;;;2.88;;
19776;SDS011;10047;42.490;26.012;2022-10-31T13:33:53;6.65;;;2.90;;
19776;SDS011;10047;42.490;26.012;2022-10-31T13:36:28;6.15;;;2.60;;
19776;SDS011;10047;42.490;26.012;2022-10-31T13:39:09;8.95;;;2.50;;
19776;SDS011;10047;42.490;26.012;2022-10-31T13:45:16;5.20;;;2.20;;
19776;SDS011;10047;42.490;26.012;2022-10-31T13:47:43;3.80;;;2.30;;
19776;SDS011;10047;42.490;26.012;2022-10-31T13:50:30;6.10;;;2.43;;
19776;SDS011;10047;42.490;26.012;2022-10-31T13:55:42;5.38;;;2.08;;
19776;SDS011;10047;42.490;26.012;2022-10-31T14:00:57;6.90;;;2.67;;
19776;SDS011;10047;42.490;26.012;2022-10-31T14:03:24;5.15;;;2.40;;
19776;SDS011;10047;42.490;26.012;2022-10-31T14:05:53;5.03;;;2.40;;
19776;SDS011;10047;42.490;26.012;2022-10-31T14:08:21;3.17;;;2.25;;
19776;SDS011;10047;42.490;26.012;2022-10-31T14:10:49;3.95;;;2.00;;
19776;SDS011;10047;42.490;26.012;2022-10-31T14:13:21;5.57;;;2.60;;
19776;SDS011;10047;42.490;26.012;2022-10-31T14:15:52;5.70;;;2.45;;
19776;SDS011;10047;42.490;26.012;2022-10-31T14:18:24;6.53;;;2.97;;
19776;SDS011;10047;42.490;26.012;2022-10-31T14:20:55;4.55;;;2.75;;
19776;SDS011;10047;42.490;26.012;2022-10-31T14:23:32;5.57;;;2.60;;
19776;SDS011;10047;42.490;26.012;2022-10-31T14:28:49;8.75;;;2.70;;
19776;SDS011;10047;42.490;26.012;2022-10-31T14:31:26;6.40;;;2.78;;
19776;SDS011;10047;42.490;26.012;2022-10-31T14:33:52;5.15;;;2.33;;
19776;SDS011;10047;42.490;26.012;2022-10-31T14:36:23;4.18;;;2.60;;
19776;SDS011;10047;42.490;26.012;2022-10-31T14:41:53;6.22;;;2.45;;
19776;SDS011;10047;42.490;26.012;2022-10-31T14:47:36;4.65;;;2.97;;
19776;SDS011;10047;42.490;26.012;2022-10-31T14:50:21;4.85;;;2.80;;
19776;SDS011;10047;42.490;26.012;2022-10-31T14:53:03;4.70;;;2.90;;
19776;SDS011;10047;42.490;26.012;2022-10-31T14:55:31;9.75;;;3.00;;
19776;SDS011;10047;42.490;26.012;2022-10-31T14:58:01;7.68;;;2.88;;
19776;SDS011;10047;42.490;26.012;2022-10-31T15:00:31;7.32;;;3.17;;
19776;SDS011;10047;42.490;26.012;2022-10-31T15:03:02;6.57;;;3.17;;
19776;SDS011;10047;42.490;26.012;2022-10-31T15:05:56;6.32;;;3.50;;
19776;SDS011;10047;42.490;26.012;2022-10-31T15:08:31;10.75;;;4.65;;
19776;SDS011;10047;42.490;26.012;2022-10-31T15:11:18;12.65;;;5.50;;
19776;SDS011;10047;42.490;26.012;2022-10-31T15:13:56;9.55;;;4.78;;
19776;SDS011;10047;42.490;26.012;2022-10-31T15:16:36;9.43;;;4.93;;
19776;SDS011;10047;42.490;26.012;2022-10-31T15:19:06;9.98;;;5.00;;
19776;SDS011;10047;42.490;26.012;2022-10-31T15:21:35;21.70;;;6.15;;
19776;SDS011;10047;42.490;26.012;2022-10-31T15:24:09;14.20;;;7.07;;
19776;SDS011;10047;42.490;26.012;2022-10-31T15:26:40;18.73;;;8.52;;
19776;SDS011;10047;42.490;26.012;2022-10-31T15:29:20;13.82;;;9.13;;
19776;SDS011;10047;42.490;26.012;2022-10-31T15:34:22;21.20;;;10.55;;
19776;SDS011;10047;42.490;26.012;2022-10-31T15:36:50;24.52;;;13.50;;
19776;SDS011;10047;42.490;26.012;2022-10-31T15:39:16;24.50;;;11.98;;
19776;SDS011;10047;42.490;26.012;2022-10-31T15:44:43;18.48;;;12.48;;
19776;SDS011;10047;42.490;26.012;2022-10-31T15:47:18;18.30;;;11.45;;
19776;SDS011;10047;42.490;26.012;2022-10-31T15:49:48;17.90;;;11.02;;
19776;SDS011;10047;42.490;26.012;2022-10-31T15:52:38;23.92;;;12.85;;
19776;SDS011;10047;42.490;26.012;2022-10-31T15:57:41;14.40;;;9.70;;
19776;SDS011;10047;42.490;26.012;2022-10-31T16:03:02;22.08;;;10.48;;
19776;SDS011;10047;42.490;26.012;2022-10-31T16:05:53;14.38;;;8.25;;
19776;SDS011;10047;42.490;26.012;2022-10-31T16:10:56;20.50;;;8.40;;
19776;SDS011;10047;42.490;26.012;2022-10-31T16:13:31;15.32;;;8.48;;
19776;SDS011;10047;42.490;26.012;2022-10-31T16:16:02;14.10;;;7.80;;
19776;SDS011;10047;42.490;26.012;2022-10-31T16:18:39;23.17;;;9.05;;
19776;SDS011;10047;42.490;26.012;2022-10-31T16:21:06;22.08;;;12.23;;
19776;SDS011;10047;42.490;26.012;2022-10-31T16:23:33;23.33;;;10.40;;
19776;SDS011;10047;42.490;26.012;2022-10-31T16:26:05;21.73;;;10.00;;
19776;SDS011;10047;42.490;26.012;2022-10-31T16:28:36;19.88;;;10.85;;
19776;SDS011;10047;42.490;26.012;2022-10-31T16:31:05;21.40;;;11.50;;
19776;SDS011;10047;42.490;26.012;2022-10-31T16:33:38;20.85;;;9.85;;
19776;SDS011;10047;42.490;26.012;2022-10-31T16:38:55;17.08;;;9.80;;
19776;SDS011;10047;42.490;26.012;2022-10-31T16:41:21;19.75;;;10.15;;